createdAt,value
2018-11-21T00:04:18.123Z,26.47
2018-11-21T00:09:37.598Z,26.33
2018-11-21T00:12:16.639Z,26.40
2018-11-21T00:14:55.661Z,27.67
2018-11-21T00:25:35.869Z,26.77
2018-11-21T00:28:14.865Z,24.90
2018-11-21T00:30:53.975Z,26.33
2018-11-21T00:33:33.157Z,27.83
2018-11-21T00:52:11.330Z,26.90
2018-11-21T00:54:50.656Z,24.27
2018-11-21T00:57:29.979Z,26.47
2018-11-21T01:00:09.213Z,26.53
2018-11-21T01:02:48.674Z,25.27
2018-11-21T01:05:27.940Z,26.17
2018-11-21T01:13:27.952Z,26.43
2018-11-21T01:16:07.334Z,26.67
2018-11-21T01:18:47.884Z,24.93
2018-11-21T01:21:27.184Z,25.30
2018-11-21T01:26:46.000Z,25.50
2018-11-21T01:34:47.425Z,27.70
2018-11-21T01:37:27.962Z,26.27
2018-11-21T01:40:09.013Z,25.63
2018-11-21T01:48:07.978Z,28.57
2018-11-21T01:50:47.045Z,27.13
2018-11-21T02:01:28.021Z,27.83
2018-11-21T02:14:48.850Z,30.80
2018-11-21T02:17:28.307Z,28.63
2018-11-21T02:25:29.682Z,30.33
2018-11-21T02:30:48.638Z,29.87
2018-11-21T02:36:08.907Z,30.17
2018-11-21T02:38:48.015Z,30.23
2018-11-21T02:41:27.379Z,30.30
2018-11-21T02:44:07.002Z,30.67
2018-11-21T02:46:46.454Z,31.13
2018-11-21T02:57:27.163Z,30.73
2018-11-21T03:10:46.542Z,30.33
2018-11-21T03:13:28.298Z,30.73
2018-11-21T03:16:04.990Z,31.13
2018-11-21T03:18:44.283Z,31.00
2018-11-21T03:24:03.639Z,31.53
2018-11-21T03:26:42.800Z,31.40
2018-11-21T03:29:22.289Z,32.07
2018-11-21T03:32:01.339Z,30.23
2018-11-21T03:34:40.426Z,30.60
2018-11-21T03:37:19.391Z,32.20
2018-11-21T03:39:58.600Z,31.00
2018-11-21T03:42:38.167Z,32.67
2018-11-21T03:53:19.742Z,30.73
2018-11-21T03:55:58.948Z,31.30
2018-11-21T03:58:39.570Z,30.47
2018-11-21T04:01:18.965Z,31.77
2018-11-21T04:09:18.595Z,32.60
2018-11-21T04:17:18.951Z,33.83
2018-11-21T04:19:58.178Z,32.37
2018-11-21T04:27:58.167Z,32.77
2018-11-21T04:30:37.283Z,32.97
2018-11-21T04:33:16.367Z,33.97
2018-11-21T04:35:55.442Z,34.83
2018-11-21T04:38:34.673Z,32.60
2018-11-21T04:41:13.967Z,33.93
2018-11-21T04:46:32.879Z,33.30
2018-11-21T04:49:13.358Z,36.13
2018-11-21T04:51:52.641Z,33.83
2018-11-21T04:54:31.733Z,33.10
2018-11-21T04:57:10.832Z,33.33
2018-11-21T04:59:50.176Z,33.80
2018-11-21T05:02:29.504Z,34.63
2018-11-21T05:05:11.120Z,35.00
2018-11-21T05:10:29.546Z,32.57
2018-11-21T05:18:29.548Z,33.17
2018-11-21T05:20:57.664Z,32.90
2018-11-21T05:23:25.737Z,35.00
2018-11-21T05:25:53.831Z,33.50
2018-11-21T05:28:22.001Z,34.00
2018-11-21T05:30:50.089Z,34.80
2018-11-21T05:33:18.182Z,35.93
2018-11-21T05:35:46.421Z,34.33
2018-11-21T05:38:14.482Z,34.67
2018-11-21T05:40:42.589Z,33.73
2018-11-21T05:43:10.663Z,36.10
2018-11-21T05:45:38.763Z,35.03
2018-11-21T05:48:07.076Z,33.90
2018-11-21T05:50:35.131Z,33.07
2018-11-21T05:53:03.204Z,33.67
2018-11-21T05:55:31.293Z,35.40
2018-11-21T05:57:59.364Z,34.13
2018-11-21T06:00:27.470Z,34.03
2018-11-21T06:02:55.536Z,33.70
2018-11-21T06:05:23.603Z,34.20
2018-11-21T06:07:51.727Z,33.97
2018-11-21T06:10:19.785Z,34.67
2018-11-21T06:12:47.857Z,35.43
2018-11-21T06:15:15.928Z,34.53
2018-11-21T06:17:48.097Z,35.00
2018-11-21T06:20:13.543Z,36.00
2018-11-21T06:22:42.004Z,34.53
2018-11-21T06:25:10.994Z,33.97
2018-11-21T06:27:39.116Z,35.47
2018-11-21T06:30:11.445Z,35.60
2018-11-21T06:32:39.719Z,34.00
2018-11-21T06:35:08.851Z,35.77
2018-11-21T06:37:37.195Z,36.13
2018-11-21T06:40:07.199Z,34.77
2018-11-21T06:42:35.263Z,35.73
2018-11-21T06:45:03.557Z,33.23
2018-11-21T06:47:31.422Z,34.87
2018-11-21T06:49:59.492Z,33.77
2018-11-21T06:52:27.581Z,35.13
2018-11-21T06:54:55.648Z,35.07
2018-11-21T06:57:23.751Z,34.80
2018-11-21T06:59:51.821Z,36.17
2018-11-21T07:02:19.883Z,35.43
2018-11-21T07:04:47.980Z,35.70
2018-11-21T07:07:16.040Z,36.60
2018-11-21T07:09:44.108Z,36.97
2018-11-21T07:12:12.205Z,38.07
2018-11-21T07:14:40.282Z,36.97
2018-11-21T07:17:08.430Z,35.27
2018-11-21T07:19:36.507Z,37.03
2018-11-21T07:22:04.663Z,35.07
2018-11-21T07:24:32.805Z,34.87
2018-11-21T07:27:00.876Z,35.07
2018-11-21T07:29:34.466Z,37.83
2018-11-21T07:31:57.060Z,35.47
2018-11-21T07:34:25.135Z,37.40
2018-11-21T07:36:53.197Z,35.53
2018-11-21T07:39:21.299Z,34.53
2018-11-21T07:41:49.372Z,37.50
2018-11-21T07:44:17.475Z,36.43
2018-11-21T07:46:45.553Z,35.37
2018-11-21T07:49:13.629Z,37.30
2018-11-21T07:51:41.725Z,37.43
2018-11-21T07:54:09.837Z,36.13
2018-11-21T07:56:58.637Z,36.07
2018-11-21T07:59:26.699Z,36.63
2018-11-21T08:02:00.600Z,36.03
2018-11-21T08:04:38.313Z,38.60
2018-11-21T08:07:32.987Z,37.60
2018-11-21T08:10:20.310Z,37.93
2018-11-21T08:13:06.453Z,37.37
2018-11-21T08:15:52.689Z,37.33
2018-11-21T08:18:52.176Z,37.07
2018-11-21T08:21:45.470Z,35.47
2018-11-21T08:24:22.078Z,36.33
2018-11-21T08:27:21.278Z,37.13
2018-11-21T08:29:49.352Z,34.17
2018-11-21T08:32:17.444Z,35.77
2018-11-21T08:34:45.530Z,34.27
2018-11-21T08:37:13.585Z,35.70
2018-11-21T08:39:42.660Z,37.33
2018-11-21T08:42:09.751Z,36.57
2018-11-21T08:44:37.900Z,35.80
2018-11-21T08:47:06.014Z,36.73
2018-11-21T08:49:34.313Z,35.33
2018-11-21T08:52:02.915Z,35.73
2018-11-21T08:54:31.132Z,37.33
2018-11-21T08:56:59.215Z,36.70
2018-11-21T08:59:27.323Z,36.47
2018-11-21T09:01:55.442Z,37.63
2018-11-21T09:04:23.584Z,34.57
2018-11-21T09:06:52.004Z,36.23
2018-11-21T09:09:20.086Z,36.57
2018-11-21T09:11:48.164Z,36.80
2018-11-21T09:14:16.246Z,36.53
2018-11-21T09:16:44.320Z,37.03
2018-11-21T09:19:12.668Z,35.40
2018-11-21T09:21:40.765Z,37.57
2018-11-21T09:24:08.896Z,37.07
2018-11-21T09:26:36.974Z,37.47
2018-11-21T09:29:05.067Z,36.33
2018-11-21T09:31:33.265Z,35.77
2018-11-21T09:34:01.343Z,35.97
2018-11-21T09:36:29.423Z,36.90
2018-11-21T09:38:57.505Z,35.87
2018-11-21T09:41:25.582Z,34.73
2018-11-21T09:43:53.648Z,35.17
2018-11-21T09:46:21.744Z,35.23
2018-11-21T09:48:49.824Z,35.67
2018-11-21T09:51:17.908Z,36.27
2018-11-21T09:53:46.059Z,35.50
2018-11-21T09:56:14.139Z,35.37
2018-11-21T09:58:42.217Z,35.70
2018-11-21T10:01:28.681Z,36.13
2018-11-21T10:04:00.952Z,35.67
2018-11-21T10:06:28.970Z,34.77
2018-11-21T10:09:01.756Z,35.27
2018-11-21T10:11:30.866Z,34.63
2018-11-21T10:13:59.137Z,35.00
2018-11-21T10:16:27.207Z,34.30
2018-11-21T10:18:56.697Z,33.90
2018-11-21T10:21:26.234Z,35.03
2018-11-21T10:23:54.373Z,33.60
2018-11-21T10:26:22.466Z,33.90
2018-11-21T10:28:51.453Z,34.97
2018-11-21T10:31:19.528Z,34.77
2018-11-21T10:33:47.874Z,36.33
2018-11-21T10:36:15.987Z,34.30
2018-11-21T10:38:44.129Z,34.47
2018-11-21T10:41:12.194Z,35.63
2018-11-21T10:43:40.294Z,35.43
2018-11-21T10:46:08.544Z,35.03
2018-11-21T10:48:36.628Z,35.47
2018-11-21T10:51:05.101Z,33.27
2018-11-21T10:53:33.226Z,33.37
2018-11-21T10:56:01.311Z,35.80
2018-11-21T10:58:29.378Z,35.97
2018-11-21T11:01:15.521Z,36.50
2018-11-21T11:03:46.337Z,35.23
2018-11-21T11:06:32.550Z,36.50
2018-11-21T11:09:18.319Z,34.93
2018-11-21T11:12:17.707Z,35.40
2018-11-21T11:15:07.557Z,35.90
2018-11-21T11:17:59.641Z,33.50
2018-11-21T11:20:43.612Z,34.37
2018-11-21T11:23:30.610Z,34.40
2018-11-21T11:26:16.630Z,34.20
2018-11-21T11:29:02.423Z,34.67
2018-11-21T11:31:49.414Z,35.10
2018-11-21T11:34:48.744Z,35.30
2018-11-21T11:37:35.259Z,34.53
2018-11-21T11:40:21.190Z,35.43
2018-11-21T11:43:14.145Z,34.60
2018-11-21T11:46:10.203Z,34.77
2018-11-21T11:48:56.165Z,34.63
2018-11-21T11:51:42.634Z,34.33
2018-11-21T11:54:29.064Z,33.17
2018-11-21T11:57:31.584Z,34.00
2018-11-21T12:00:27.534Z,35.43
2018-11-21T12:03:13.793Z,35.50
2018-11-21T12:05:56.491Z,34.43
2018-11-21T12:08:59.091Z,34.33
2018-11-21T12:11:46.414Z,32.80
2018-11-21T12:14:23.627Z,33.30
2018-11-21T12:17:25.892Z,33.87
2018-11-21T12:20:28.218Z,33.33
2018-11-21T12:23:30.666Z,33.93
2018-11-21T12:26:17.004Z,33.87
2018-11-21T12:29:12.221Z,32.63
2018-11-21T12:32:17.921Z,34.20
2018-11-21T12:35:04.237Z,33.37
2018-11-21T12:37:54.502Z,34.40
2018-11-21T12:40:32.263Z,34.33
2018-11-21T12:43:22.202Z,34.87
2018-11-21T12:46:07.944Z,33.30
2018-11-21T12:48:54.853Z,33.93
2018-11-21T12:51:47.686Z,32.33
2018-11-21T12:54:33.920Z,33.53
2018-11-21T12:57:20.171Z,32.40
2018-11-21T13:00:07.482Z,33.37
2018-11-21T13:03:10.257Z,33.60
2018-11-21T13:06:16.947Z,31.43
2018-11-21T13:11:54.681Z,32.33
2018-11-21T13:17:13.608Z,34.37
2018-11-21T13:28:33.752Z,31.97
2018-11-21T13:33:52.438Z,32.27
2018-11-21T13:56:08.740Z,33.37
2018-11-21T13:58:49.310Z,32.67
2018-11-21T14:01:28.633Z,33.07
2018-11-21T14:09:27.780Z,32.80
2018-11-21T14:12:06.984Z,35.73
2018-11-21T14:20:06.080Z,32.33
2018-11-21T14:30:48.662Z,33.80
2018-11-21T14:33:27.957Z,31.50
2018-11-21T14:36:07.351Z,32.27
2018-11-21T14:54:48.527Z,32.60
2018-11-21T14:57:27.669Z,30.83
2018-11-21T15:05:27.207Z,30.67
2018-11-21T15:08:07.970Z,31.03
2018-11-21T15:10:47.150Z,32.27
2018-11-21T15:13:26.291Z,32.93
2018-11-21T15:16:06.380Z,33.20
2018-11-21T15:21:25.121Z,32.73
2018-11-21T15:24:04.392Z,35.53
2018-11-21T15:45:24.128Z,32.10
2018-11-21T15:48:04.076Z,31.27
2018-11-21T15:53:23.056Z,32.77
2018-11-21T15:56:02.133Z,32.40
2018-11-21T15:58:41.451Z,31.57
2018-11-21T16:01:22.037Z,31.23
2018-11-21T16:04:01.209Z,32.13
2018-11-21T16:17:20.835Z,32.30
2018-11-21T16:20:01.354Z,31.10
2018-11-21T16:22:40.681Z,31.77
2018-11-21T16:44:04.365Z,31.50
2018-11-21T16:46:43.648Z,32.43
2018-11-21T16:49:22.790Z,31.73
2018-11-21T16:52:02.167Z,33.17
2018-11-21T16:54:42.708Z,31.73
2018-11-21T16:57:22.115Z,32.17
2018-11-21T17:00:01.758Z,30.93
2018-11-21T17:02:40.892Z,31.17
2018-11-21T17:08:01.138Z,32.27
2018-11-21T17:10:41.419Z,30.80
2018-11-21T17:13:09.530Z,32.17
2018-11-21T17:15:57.018Z,32.80
2018-11-21T17:26:35.501Z,30.97
2018-11-21T17:31:57.633Z,34.03
2018-11-21T17:39:56.414Z,32.90
2018-11-21T17:42:35.796Z,33.83
2018-11-21T17:45:15.935Z,33.47
2018-11-21T17:55:56.312Z,33.67
2018-11-21T17:58:35.650Z,34.53
2018-11-21T18:01:16.165Z,33.67
2018-11-21T18:03:55.754Z,34.60
2018-11-21T18:06:34.938Z,33.73
2018-11-21T18:09:14.350Z,33.67
2018-11-21T18:19:55.071Z,35.57
2018-11-21T18:22:33.303Z,37.23
2018-11-21T18:25:13.628Z,35.87
2018-11-21T18:27:52.749Z,34.70
2018-11-21T18:30:32.103Z,35.40
2018-11-21T18:33:12.007Z,35.40
2018-11-21T18:35:50.564Z,36.27
2018-11-21T18:43:49.874Z,36.03
